Time;durP1;ratioP1;P1;durP2;ratioP2;P2;SDS_P1;SDS_P2;PMS_P1;PMS_P2;Temp;Humidity;BMP_temperature;BMP_pressure;BME280_temperature;BME280_humidity;BME280_pressure;Samples;Min_cycle;Max_cycle;Signal;HPM_P1;HPM_P2
2021/04/29 00:02:24;;;;;;;12.57;6.80;;;;;;;14.34;100.00;96667.50;5015924;28;20205;-72
2021/04/29 00:04:51;;;;;;;12.77;8.17;;;;;;;14.25;100.00;96663.69;5015041;28;20677;-73
2021/04/29 00:07:18;;;;;;;9.97;7.57;;;;;;;14.02;100.00;96657.78;5015462;28;20246;-73
2021/04/29 00:09:45;;;;;;;12.73;7.33;;;;;;;14.26;100.00;96659.94;5022424;28;20222;-72
2021/04/29 00:12:12;;;;;;;11.43;7.80;;;;;;;14.17;100.00;96656.06;5018063;28;20299;-72
2021/04/29 00:14:39;;;;;;;12.67;7.93;;;;;;;14.07;100.00;96657.84;5023171;28;20212;-72
2021/04/29 00:17:06;;;;;;;13.87;8.47;;;;;;;14.36;100.00;96653.81;5020326;28;20217;-73
2021/04/29 00:19:33;;;;;;;13.37;7.57;;;;;;;14.42;100.00;96656.28;5024147;28;20740;-73
2021/04/29 00:22:00;;;;;;;11.10;7.73;;;;;;;14.02;100.00;96661.31;5026298;28;20212;-72
2021/04/29 00:24:27;;;;;;;11.90;7.53;;;;;;;14.19;100.00;96658.50;5018502;28;20208;-72
2021/04/29 00:26:54;;;;;;;13.00;8.27;;;;;;;14.19;100.00;96658.50;5024844;28;20210;-72
2021/04/29 00:29:21;;;;;;;14.40;8.93;;;;;;;14.35;100.00;96660.25;5018093;28;20226;-72
2021/04/29 00:31:48;;;;;;;14.07;8.93;;;;;;;14.54;100.00;96664.16;5017133;28;20213;-72
2021/04/29 00:34:15;;;;;;;14.57;8.53;;;;;;;14.25;100.00;96670.91;5016971;28;20214;-72
2021/04/29 00:36:41;;;;;;;16.17;8.53;;;;;;;14.39;100.00;96674.78;5013763;28;20215;-72
2021/04/29 00:39:08;;;;;;;13.33;8.27;;;;;;;14.56;100.00;96668.22;5026942;28;20205;-73
2021/04/29 00:41:35;;;;;;;12.80;8.33;;;;;;;14.59;100.00;96669.56;5018859;28;20226;-72
2021/04/29 00:44:03;;;;;;;13.53;8.43;;;;;;;14.56;100.00;96668.22;5020720;28;20205;-72
2021/04/29 00:46:30;;;;;;;12.60;8.03;;;;;;;14.34;100.00;96674.75;5018896;28;20212;-72
2021/04/29 00:48:57;;;;;;;11.77;8.53;;;;;;;14.28;100.00;96673.09;5019533;28;20575;-72
2021/04/29 00:51:24;;;;;;;12.83;8.00;;;;;;;14.66;100.00;96670.97;5022562;28;20241;-72
2021/04/29 00:53:52;;;;;;;16.77;8.47;;;;;;;14.59;100.00;96674.94;5021308;28;20413;-72
2021/04/29 00:56:20;;;;;;;11.80;7.83;;;;;;;14.49;100.00;96672.97;5024274;28;20221;-72
2021/04/29 00:58:48;;;;;;;10.77;7.60;;;;;;;14.46;100.00;96680.75;5023633;28;20206;-72
2021/04/29 01:01:16;;;;;;;10.87;7.57;;;;;;;14.60;100.00;96681.94;5017279;28;20715;-72
2021/04/29 01:03:47;;;;;;;15.63;7.47;;;;;;;14.64;100.00;96683.81;5021473;28;20217;-73
2021/04/29 01:06:17;;;;;;;12.67;7.63;;;;;;;14.48;100.00;96684.00;5015684;28;20648;-73
2021/04/29 01:08:50;;;;;;;14.53;7.73;;;;;;;14.61;100.00;96689.72;5020932;28;20576;-72
2021/04/29 01:11:19;;;;;;;10.53;7.70;;;;;;;14.69;100.00;96691.13;5013285;28;20229;-72
2021/04/29 01:13:51;;;;;;;10.63;7.43;;;;;;;14.74;100.00;96693.84;5021431;28;20216;-72
2021/04/29 01:16:20;;;;;;;12.57;7.90;;;;;;;14.77;100.00;96696.81;5021216;28;20232;-73
2021/04/29 01:18:48;;;;;;;9.67;7.27;;;;;;;14.76;100.00;96691.69;5028177;28;20663;-73
2021/04/29 01:21:16;;;;;;;9.10;7.07;;;;;;;14.78;100.00;96694.91;5021079;28;20232;-72
2021/04/29 01:23:57;;;;;;;11.50;7.93;;;;;;;14.82;100.00;96690.66;5024510;28;20256;-72
2021/04/29 01:26:50;;;;;;;10.80;6.80;;;;;;;14.84;100.00;96694.69;5026339;28;20205;-73
2021/04/29 01:29:20;;;;;;;9.30;6.17;;;;;;;14.78;100.00;96694.91;5023316;28;20228;-72
2021/04/29 01:31:48;;;;;;;8.07;5.60;;;;;;;14.78;100.00;96694.91;5022029;28;20512;-73
2021/04/29 01:34:18;;;;;;;6.97;5.30;;;;;;;14.79;100.00;96696.56;5027850;28;20667;-72
2021/04/29 01:36:45;;;;;;;7.33;5.00;;;;;;;14.77;100.00;96696.00;5026501;28;20216;-73
2021/04/29 01:39:13;;;;;;;6.97;5.17;;;;;;;14.85;100.00;96695.53;5024346;28;20208;-73
2021/04/29 01:41:44;;;;;;;7.57;5.03;;;;;;;14.97;100.00;96693.44;5025165;28;20248;-72
2021/04/29 01:44:11;;;;;;;6.17;4.40;;;;;;;14.91;100.00;96694.47;5027218;28;20206;-72
2021/04/29 01:46:39;;;;;;;6.73;4.37;;;;;;;15.02;100.00;96701.53;5030645;28;20207;-73
2021/04/29 01:49:08;;;;;;;6.23;4.33;;;;;;;14.91;100.00;96707.91;5031075;28;20223;-72
2021/04/29 01:51:35;;;;;;;7.83;4.60;;;;;;;14.99;100.00;96702.84;5019495;28;20237;-73
2021/04/29 01:54:03;;;;;;;5.10;3.87;;;;;;;14.95;100.00;96703.66;5028800;28;20213;-73
2021/04/29 01:56:30;;;;;;;6.33;4.43;;;;;;;14.87;100.00;96704.94;5025691;28;20221;-73
2021/04/29 01:58:57;;;;;;;6.90;4.20;;;;;;;14.96;100.00;96718.69;5025847;28;20198;-72
2021/04/29 02:01:25;;;;;;;5.67;3.57;;;;;;;14.89;100.00;96715.44;5025587;28;20224;-72
2021/04/29 02:03:53;;;;;;;4.97;3.30;;;;;;;14.79;100.00;96715.38;5025663;28;20261;-72
2021/04/29 02:06:20;;;;;;;5.27;3.90;;;;;;;14.81;100.00;96716.72;5023230;28;20261;-73
2021/04/29 02:08:47;;;;;;;5.40;3.73;;;;;;;14.83;100.00;96719.94;5029106;28;20335;-72
2021/04/29 02:11:14;;;;;;;3.97;2.93;;;;;;;14.76;100.00;96730.13;5020573;28;20586;-73
2021/04/29 02:13:44;;;;;;;4.73;3.20;;;;;;;14.72;100.00;96720.13;5019526;28;20203;-73
2021/04/29 02:16:14;;;;;;;4.23;3.20;;;;;;;14.67;100.00;96731.66;5024267;28;20267;-73
2021/04/29 02:18:46;;;;;;;4.33;2.90;;;;;;;14.76;100.00;96731.97;5018545;28;20201;-72
2021/04/29 02:21:16;;;;;;;3.60;2.43;;;;;;;14.76;100.00;96738.16;5020054;28;20230;-73
2021/04/29 02:23:45;;;;;;;4.03;2.67;;;;;;;14.84;100.00;96740.34;5019893;28;20557;-73
2021/04/29 02:26:14;;;;;;;3.07;2.10;;;;;;;14.71;100.00;96734.63;5020252;28;20203;-73
2021/04/29 02:28:42;;;;;;;3.50;2.03;;;;;;;14.72;100.00;96744.28;5021329;28;20241;-72
2021/04/29 02:31:09;;;;;;;3.63;1.60;;;;;;;14.39;100.00;96749.94;5018588;28;20222;-72
2021/04/29 02:33:36;;;;;;;2.10;1.60;;;;;;;14.68;100.00;96741.31;5023425;28;20195;-73
2021/04/29 02:36:05;;;;;;;2.00;1.43;;;;;;;14.66;100.00;96748.00;5020597;28;20205;-73
2021/04/29 02:38:33;;;;;;;1.23;1.13;;;;;;;14.58;100.00;96738.56;5025545;28;20202;-73
2021/04/29 02:41:00;;;;;;;3.40;1.10;;;;;;;14.67;100.00;96758.50;5022220;28;20234;-72
2021/04/29 02:43:27;;;;;;;1.10;1.00;;;;;;;14.93;100.00;96746.06;5020032;28;20207;-72
2021/04/29 02:45:54;;;;;;;1.60;1.00;;;;;;;14.93;100.00;96746.88;5021685;28;20700;-73
2021/04/29 02:48:21;;;;;;;1.00;0.90;;;;;;;14.80;100.00;96759.94;5028123;28;20759;-72
2021/04/29 02:50:48;;;;;;;0.80;0.80;;;;;;;14.81;100.00;96783.88;5018561;28;20230;-73
2021/04/29 02:53:17;;;;;;;1.83;1.27;;;;;;;14.48;100.00;96797.53;5024984;28;20969;-73
2021/04/29 02:55:46;;;;;;;2.40;1.80;;;;;;;17.49;100.00;96800.31;5017079;28;20214;-72
2021/04/29 02:58:15;;;;;;;2.43;1.70;;;;;;;17.22;100.00;96794.38;5022827;28;20198;-72
2021/04/29 03:00:43;;;;;;;1.70;1.20;;;;;;;15.83;100.00;96800.34;5025653;28;20339;-71
2021/04/29 03:03:11;;;;;;;1.87;1.23;;;;;;;15.32;100.00;96795.75;5019683;28;20203;-71
2021/04/29 03:05:38;;;;;;;2.10;1.70;;;;;;;15.23;100.00;96808.88;5015331;28;20207;-71
2021/04/29 03:08:05;;;;;;;1.70;1.23;;;;;;;15.27;100.00;96809.97;5021291;28;20717;-71
2021/04/29 03:10:32;;;;;;;1.43;1.13;;;;;;;15.29;100.00;96815.91;5027174;28;20778;-71
2021/04/29 03:13:00;;;;;;;2.60;0.80;;;;;;;15.10;100.00;96816.59;5024987;28;20211;-71
2021/04/29 03:15:28;;;;;;;1.37;1.00;;;;;;;15.43;100.00;96813.59;5020929;28;20209;-71
2021/04/29 03:17:54;;;;;;;1.57;0.83;;;;;;;15.48;100.00;96824.38;5016310;28;20208;-71
2021/04/29 03:20:21;;;;;;;1.57;0.80;;;;;;;15.00;100.00;96829.94;5020733;28;20229;-71
2021/04/29 03:22:48;;;;;;;1.50;0.80;;;;;;;15.16;100.00;96831.66;5020769;28;20206;-72
2021/04/29 03:25:15;;;;;;;2.33;0.90;;;;;;;15.32;100.00;96831.53;5022311;28;20209;-72
2021/04/29 03:27:42;;;;;;;1.10;0.90;;;;;;;15.39;100.00;96834.81;5016205;28;20230;-72
2021/04/29 03:30:10;;;;;;;0.97;0.80;;;;;;;14.89;100.00;96834.41;5016058;28;20308;-71
2021/04/29 03:32:38;;;;;;;0.60;0.60;;;;;;;15.00;100.00;96833.41;5024414;28;20677;-71
2021/04/29 03:35:06;;;;;;;0.87;0.80;;;;;;;15.23;100.00;96848.38;5022656;28;20227;-71
2021/04/29 03:37:33;;;;;;;2.40;0.97;;;;;;;14.97;100.00;96844.69;5017574;28;20252;-72
2021/04/29 03:40:00;;;;;;;0.80;0.70;;;;;;;15.05;100.00;96854.16;5021149;28;20726;-71
2021/04/29 03:42:27;;;;;;;0.97;0.87;;;;;;;14.80;100.00;96853.94;5018887;28;20354;-72
2021/04/29 03:44:54;;;;;;;1.13;0.60;;;;;;;14.68;100.00;96864.03;5025012;28;20207;-71
2021/04/29 03:47:22;;;;;;;1.97;0.87;;;;;;;14.79;100.00;96863.06;5017908;28;20203;-72
2021/04/29 03:49:49;;;;;;;0.90;0.80;;;;;;;14.76;100.00;96877.00;5019406;28;20233;-71
2021/04/29 03:52:16;;;;;;;1.60;0.80;;;;;;;14.61;100.00;96871.47;5017998;28;20211;-71
2021/04/29 03:54:43;;;;;;;1.53;0.50;;;;;;;14.46;100.00;96880.19;5024205;28;20215;-71
2021/04/29 03:57:10;;;;;;;1.57;0.60;;;;;;;14.46;100.00;96884.75;5016612;28;20205;-72
2021/04/29 03:59:36;;;;;;;0.50;0.50;;;;;;;14.37;100.00;96884.38;5018713;28;20231;-71
2021/04/29 04:02:03;;;;;;;2.60;0.60;;;;;;;14.33;100.00;96885.16;5023827;28;20201;-71
2021/04/29 04:04:31;;;;;;;0.70;0.70;;;;;;;14.38;100.00;96887.91;5024022;28;20275;-72
2021/04/29 04:06:58;;;;;;;0.70;0.60;;;;;;;14.42;100.00;96884.44;5019823;28;20204;-72
2021/04/29 04:09:25;;;;;;;2.30;0.63;;;;;;;14.08;100.00;96887.50;5017477;28;20219;-72
2021/04/29 04:11:52;;;;;;;0.60;0.53;;;;;;;14.22;100.00;96878.03;5020910;28;20204;-71
2021/04/29 04:14:18;;;;;;;0.97;0.77;;;;;;;14.32;100.00;96887.00;5019513;28;20208;-72
2021/04/29 04:16:45;;;;;;;0.83;0.60;;;;;;;14.32;100.00;96891.56;5019135;28;20205;-72
2021/04/29 04:19:12;;;;;;;0.90;0.70;;;;;;;14.34;100.00;96898.28;5013694;28;20199;-72
2021/04/29 04:21:39;;;;;;;0.70;0.60;;;;;;;14.26;100.00;96901.44;5019855;28;20356;-72
2021/04/29 04:24:07;;;;;;;2.03;0.80;;;;;;;14.27;100.00;96905.75;5024169;28;20206;-72
2021/04/29 04:26:34;;;;;;;1.00;0.80;;;;;;;14.30;100.00;96918.66;5019171;28;20346;-72
2021/04/29 04:29:01;;;;;;;2.20;0.80;;;;;;;14.19;100.00;96918.75;5027320;28;20232;-72
2021/04/29 04:31:27;;;;;;;3.33;0.87;;;;;;;14.15;100.00;96914.94;5020429;28;20310;-72
2021/04/29 04:33:54;;;;;;;0.80;0.80;;;;;;;14.08;100.00;96915.13;5024227;28;20201;-72
2021/04/29 04:36:21;;;;;;;1.10;1.00;;;;;;;14.19;100.00;96916.88;5022330;28;20206;-71
2021/04/29 04:38:49;;;;;;;0.90;0.73;;;;;;;14.20;100.00;96907.81;5028883;28;20271;-72
2021/04/29 04:41:15;;;;;;;2.67;0.90;;;;;;;13.97;100.00;96910.69;5021804;28;20590;-72
2021/04/29 04:43:42;;;;;;;0.60;0.60;;;;;;;13.92;100.00;96915.16;5024513;28;20214;-72
2021/04/29 04:46:09;;;;;;;1.63;0.80;;;;;;;13.75;100.00;96915.22;5019486;28;20206;-72
2021/04/29 04:48:36;;;;;;;1.37;0.87;;;;;;;14.07;100.00;96912.69;5019612;28;20313;-72
2021/04/29 04:51:03;;;;;;;2.37;1.07;;;;;;;13.85;100.00;96912.69;5026748;28;20237;-72
2021/04/29 04:53:29;;;;;;;1.80;0.97;;;;;;;14.15;100.00;96926.50;5030241;28;20231;-72
2021/04/29 04:55:57;;;;;;;1.57;1.10;;;;;;;14.25;100.00;96923.97;5028851;28;20222;-71
2021/04/29 04:58:24;;;;;;;1.17;0.80;;;;;;;13.88;100.00;96930.94;5026784;28;20265;-73
2021/04/29 05:00:50;;;;;;;1.00;0.90;;;;;;;13.96;100.00;96946.63;5024536;28;20246;-72
2021/04/29 05:03:18;;;;;;;1.00;0.70;;;;;;;14.45;100.00;96943.00;5026307;28;20198;-79
2021/04/29 05:05:45;;;;;;;1.60;0.97;;;;;;;14.55;100.00;96948.50;5020527;28;20689;-72
2021/04/29 05:08:12;;;;;;;6.33;1.43;;;;;;;14.57;100.00;96943.66;5022735;28;20330;-78
2021/04/29 05:10:39;;;;;;;1.83;1.00;;;;;;;14.41;100.00;96951.78;5018771;28;20244;-72
2021/04/29 05:13:07;;;;;;;1.80;1.10;;;;;;;14.74;100.00;96951.66;5021176;28;20409;-72
2021/04/29 05:15:35;;;;;;;3.07;1.37;;;;;;;14.52;100.00;96959.72;5017897;28;20570;-72
2021/04/29 05:18:02;;;;;;;1.40;1.20;;;;;;;14.61;100.00;96957.41;5018270;28;20567;-72
2021/04/29 05:20:29;;;;;;;2.87;1.30;;;;;;;14.87;100.00;96961.97;5015735;28;20356;-72
2021/04/29 05:22:56;;;;;;;1.27;1.10;;;;;;;14.49;100.00;96962.09;5022112;28;20241;-72
2021/04/29 05:25:24;;;;;;;1.80;1.37;;;;;;;14.80;100.00;96967.53;5017552;28;20681;-71
2021/04/29 05:27:51;;;;;;;1.40;1.20;;;;;;;14.83;100.00;96966.22;5030655;28;20208;-72
2021/04/29 05:30:20;;;;;;;2.03;1.20;;;;;;;14.56;100.00;96962.72;5027937;28;20227;-72
2021/04/29 05:32:48;;;;;;;2.77;1.60;;;;;;;14.99;100.00;96954.59;5018430;28;20217;-73
2021/04/29 05:35:15;;;;;;;3.93;1.53;;;;;;;14.98;100.00;96956.47;5019957;28;20198;-72
2021/04/29 05:37:42;;;;;;;2.40;1.40;;;;;;;14.80;100.00;96953.31;5024374;28;20300;-73
2021/04/29 05:40:09;;;;;;;2.83;1.80;;;;;;;15.18;100.00;96956.66;5025305;28;20239;-72
2021/04/29 05:42:36;;;;;;;1.97;1.57;;;;;;;15.12;100.00;96951.47;5022789;28;20355;-73
2021/04/29 05:45:03;;;;;;;1.80;1.53;;;;;;;15.41;100.00;96950.97;5017351;28;20596;-74
2021/04/29 05:47:31;;;;;;;4.67;2.00;;;;;;;15.40;100.00;96949.34;5023243;28;20207;-74
2021/04/29 05:49:58;;;;;;;4.32;2.10;;;;;;;15.18;100.00;96962.03;5019292;28;20481;-73
2021/04/29 05:52:25;;;;;;;2.83;2.03;;;;;;;15.24;100.00;96961.00;5016221;28;20199;-73
2021/04/29 05:54:52;;;;;;;2.27;1.67;;;;;;;14.80;100.00;96972.13;5022758;28;20207;-73
2021/04/29 05:57:19;;;;;;;3.40;1.90;;;;;;;15.17;100.00;96967.66;5021290;28;20243;-74
2021/04/29 05:59:46;;;;;;;3.40;1.90;;;;;;;14.98;100.00;96975.25;5011872;28;20789;-72
2021/04/29 06:02:13;;;;;;;4.77;2.33;;;;;;;15.29;100.00;96973.69;5021182;28;20213;-72
2021/04/29 06:04:40;;;;;;;3.10;1.77;;;;;;;15.34;100.00;96977.25;5020658;28;20222;-73
2021/04/29 06:07:07;;;;;;;3.87;2.10;;;;;;;15.38;100.00;96977.53;5015099;28;20210;-73
2021/04/29 06:09:34;;;;;;;2.73;1.93;;;;;;;15.61;100.00;96979.91;5024227;28;20231;-73
2021/04/29 06:12:01;;;;;;;3.87;1.97;;;;;;;15.53;100.00;96975.81;5025928;28;20251;-73
2021/04/29 06:14:28;;;;;;;4.13;2.00;;;;;;;15.33;100.00;96981.00;5021157;28;20538;-74
2021/04/29 06:16:55;;;;;;;5.07;2.07;;;;;;;15.56;100.00;96977.97;5018827;28;20332;-72
2021/04/29 06:19:22;;;;;;;2.33;2.00;;;;;;;15.54;100.00;96976.59;5025546;28;20206;-73
2021/04/29 06:21:50;;;;;;;4.20;1.90;;;;;;;15.48;100.00;96970.38;5024240;28;20664;-73
2021/04/29 06:24:17;;;;;;;5.33;2.03;;;;;;;15.75;100.00;96973.03;5028493;28;20210;-73
2021/04/29 06:26:44;;;;;;;3.70;2.03;;;;;;;15.92;100.00;96966.41;5020568;28;20206;-73
2021/04/29 06:29:11;;;;;;;2.90;2.13;;;;;;;16.33;100.00;96962.06;5015677;28;20268;-74
2021/04/29 06:31:39;;;;;;;4.33;2.17;;;;;;;16.53;100.00;96962.19;5026752;28;20243;-73
2021/04/29 06:34:07;;;;;;;4.77;2.43;;;;;;;16.34;100.00;96963.66;5024828;28;20208;-73
2021/04/29 06:36:33;;;;;;;2.30;2.10;;;;;;;16.92;99.96;96966.09;5025201;28;20771;-73
2021/04/29 06:39:01;;;;;;;7.17;2.20;;;;;;;16.77;99.37;96966.03;5024047;28;20307;-72
2021/04/29 06:41:28;;;;;;;5.10;2.47;;;;;;;16.53;100.00;96964.88;5025467;28;20230;-73
2021/04/29 06:43:55;;;;;;;3.00;2.20;;;;;;;16.59;99.83;96959.25;5017035;28;20204;-73
2021/04/29 06:46:22;;;;;;;3.27;2.20;;;;;;;16.88;100.00;96959.59;5023356;28;20205;-74
2021/04/29 06:48:48;;;;;;;3.83;2.53;;;;;;;16.85;99.14;96960.94;5024618;28;20227;-73
2021/04/29 06:51:15;;;;;;;6.57;2.53;;;;;;;17.34;91.89;96961.28;5023542;28;20243;-74
2021/04/29 06:53:42;;;;;;;5.23;2.93;;;;;;;17.02;91.33;96968.81;5022583;28;20203;-74
2021/04/29 06:56:10;;;;;;;5.00;2.70;;;;;;;17.22;93.44;96964.25;5018861;28;20313;-75
2021/04/29 06:58:36;;;;;;;6.50;2.60;;;;;;;17.22;90.50;96964.25;5022088;28;20204;-74
2021/04/29 07:01:03;;;;;;;9.43;3.10;;;;;;;17.69;90.01;96964.81;5027747;28;20645;-76
2021/04/29 07:03:30;;;;;;;3.90;3.00;;;;;;;16.86;93.46;96965.25;5018175;28;20212;-75
2021/04/29 07:05:57;;;;;;;4.97;2.93;;;;;;;17.53;89.32;96970.50;5024020;28;20209;-76
2021/04/29 07:08:24;;;;;;;6.43;3.10;;;;;;;17.76;89.50;96969.94;5025026;28;20744;-76
2021/04/29 07:10:50;;;;;;;6.33;3.30;;;;;;;17.73;82.13;96987.50;5023910;28;20239;-74
2021/04/29 07:13:18;;;;;;;5.93;3.07;;;;;;;17.90;83.38;96985.34;5022143;28;20267;-74
2021/04/29 07:15:45;;;;;;;7.80;2.97;;;;;;;17.86;84.62;96984.25;5024715;28;20206;-73
2021/04/29 07:18:14;;;;;;;4.77;2.80;;;;;;;18.13;81.22;96979.34;5024235;28;20285;-75
2021/04/29 07:20:41;;;;;;;6.43;3.10;;;;;;;17.89;82.42;96988.31;5015709;28;20246;-75
2021/04/29 07:23:08;;;;;;;5.53;2.73;;;;;;;17.97;82.00;96998.53;5018552;28;20203;-76
2021/04/29 07:25:36;;;;;;;9.30;3.40;;;;;;;17.47;84.69;96991.25;5026281;28;20656;-74
2021/04/29 07:28:05;;;;;;;5.40;3.00;;;;;;;17.67;84.59;96999.38;5035154;28;20234;-74
2021/04/29 07:30:33;;;;;;;6.73;3.53;;;;;;;17.75;83.89;96993.44;5043567;28;20289;-74
2021/04/29 07:33:00;;;;;;;6.77;2.67;;;;;;;17.93;84.01;96995.56;5034315;28;20270;-76
2021/04/29 07:35:27;;;;;;;5.10;3.17;;;;;;;18.34;79.70;96993.66;5029447;28;20307;-75
2021/04/29 07:37:54;;;;;;;5.17;3.27;;;;;;;18.07;80.81;96993.13;5020910;28;20668;-75
2021/04/29 07:40:21;;;;;;;13.27;3.37;;;;;;;17.70;83.63;96998.03;5018171;28;20222;-75
2021/04/29 07:42:47;;;;;;;6.53;3.43;;;;;;;17.80;83.10;97004.25;5018852;28;20679;-74
2021/04/29 07:45:15;;;;;;;5.53;3.23;;;;;;;17.31;84.38;97005.78;5023407;28;20201;-73
2021/04/29 07:47:45;;;;;;;5.67;3.63;;;;;;;17.49;85.23;97004.50;5012528;28;20206;-71
2021/04/29 07:50:13;;;;;;;7.30;3.73;;;;;;;18.13;81.34;97009.06;5024693;28;20698;-74
2021/04/29 07:52:41;;;;;;;7.27;3.63;;;;;;;18.00;79.75;97014.19;5020809;28;20213;-73
2021/04/29 07:55:09;;;;;;;4.90;3.47;;;;;;;18.18;76.72;97011.75;5019273;28;20214;-74
2021/04/29 07:57:36;;;;;;;5.17;3.37;;;;;;;17.83;79.08;97006.38;5025384;28;20207;-75
2021/04/29 08:00:05;;;;;;;12.43;3.67;;;;;;;17.79;77.96;97009.91;5029102;28;20218;-75
2021/04/29 08:02:31;;;;;;;5.23;4.00;;;;;;;17.96;78.39;97011.25;5017594;28;20198;-74
2021/04/29 08:04:59;;;;;;;7.80;4.47;;;;;;;18.20;72.82;97027.69;5022674;28;20209;-74
2021/04/29 08:07:26;;;;;;;5.03;4.03;;;;;;;18.29;69.77;97026.84;5024843;28;20203;-74
2021/04/29 08:09:53;;;;;;;6.10;4.17;;;;;;;18.47;67.16;97025.47;5020911;28;20600;-75
2021/04/29 08:12:20;;;;;;;6.13;4.10;;;;;;;18.74;70.37;97028.66;5019086;28;20199;-75
2021/04/29 08:14:46;;;;;;;7.37;4.03;;;;;;;19.01;69.51;97026.38;5015191;28;20220;-73
2021/04/29 08:17:13;;;;;;;8.13;3.50;;;;;;;18.79;68.47;97023.25;5020842;28;20205;-75
2021/04/29 08:19:40;;;;;;;6.73;3.83;;;;;;;18.86;64.38;97037.25;5019328;28;20225;-73
2021/04/29 08:22:08;;;;;;;6.40;4.37;;;;;;;20.16;61.18;97047.31;5027577;28;20206;-75
2021/04/29 08:24:35;;;;;;;6.00;3.90;;;;;;;19.47;63.81;97033.19;5016884;28;20239;-73
2021/04/29 08:27:01;;;;;;;7.03;4.53;;;;;;;18.82;66.59;97025.38;5026532;28;20692;-75
2021/04/29 08:29:29;;;;;;;9.37;3.57;;;;;;;19.12;64.61;97036.06;5018802;28;20705;-76
2021/04/29 08:31:56;;;;;;;7.53;3.73;;;;;;;19.50;65.22;97027.22;5016914;28;20574;-74
2021/04/29 08:34:23;;;;;;;6.90;3.97;;;;;;;19.16;64.45;97029.00;5020032;28;20224;-76
2021/04/29 08:36:50;;;;;;;12.60;4.43;;;;;;;19.04;62.47;97032.03;5019577;28;20206;-75
2021/04/29 08:39:17;;;;;;;7.30;4.80;;;;;;;19.04;61.18;97036.63;5022030;28;21182;-75
2021/04/29 08:41:44;;;;;;;6.83;4.10;;;;;;;19.59;58.40;97047.97;5015809;28;20213;-76
2021/04/29 08:44:11;;;;;;;6.47;4.40;;;;;;;19.97;56.88;97047.13;5023547;28;20230;-76
2021/04/29 08:46:38;;;;;;;12.70;5.43;;;;;;;19.69;59.70;97037.09;5017614;28;20211;-76
2021/04/29 08:49:05;;;;;;;6.97;4.77;;;;;;;19.79;62.68;97045.13;5013049;28;20220;-75
2021/04/29 08:51:32;;;;;;;7.77;4.30;;;;;;;19.89;58.75;97045.06;5017198;28;20243;-77
2021/04/29 08:53:59;;;;;;;10.07;4.80;;;;;;;19.60;60.57;97036.06;5019711;28;20222;-77
2021/04/29 08:56:27;;;;;;;7.60;4.77;;;;;;;19.43;61.92;97032.13;5025231;28;20202;-75
2021/04/29 08:58:55;;;;;;;8.97;5.30;;;;;;;19.72;61.15;97038.41;5022736;28;20208;-76
2021/04/29 09:01:23;;;;;;;8.07;4.50;;;;;;;19.24;60.43;97039.25;5017416;28;20233;-74
2021/04/29 09:03:50;;;;;;;8.07;5.30;;;;;;;19.21;60.66;97043.28;5021159;28;20253;-74
2021/04/29 09:06:17;;;;;;;10.90;4.70;;;;;;;19.05;60.79;97041.75;5012472;28;20204;-75
2021/04/29 09:08:45;;;;;;;9.40;4.73;;;;;;;19.45;58.46;97044.28;5015048;28;21676;-76
2021/04/29 09:11:13;;;;;;;7.50;4.70;;;;;;;19.27;57.58;97052.22;5025849;28;20227;-75
2021/04/29 09:13:42;;;;;;;7.60;4.93;;;;;;;19.19;58.09;97050.88;5019690;28;20213;-75
2021/04/29 09:16:11;;;;;;;6.60;4.67;;;;;;;18.25;67.20;97033.91;5023021;28;20204;-76
2021/04/29 09:18:40;;;;;;;6.77;4.20;;;;;;;18.66;61.83;97037.31;5025428;28;20200;-74
2021/04/29 09:21:11;;;;;;;6.57;4.60;;;;;;;18.39;63.67;97042.28;5020816;28;20223;-74
2021/04/29 09:23:40;;;;;;;7.10;4.80;;;;;;;18.40;64.63;97046.59;5019829;28;20215;-75
2021/04/29 09:26:08;;;;;;;8.23;4.43;;;;;;;17.76;72.69;97053.59;5024982;28;20634;-75
2021/04/29 09:28:41;;;;;;;6.40;4.87;;;;;;;17.39;85.05;97045.75;5023784;28;20245;-74
2021/04/29 09:31:11;;;;;;;9.20;5.23;;;;;;;16.45;100.00;97049.66;5021871;28;20222;-75
2021/04/29 09:33:40;;;;;;;14.47;5.63;;;;;;;15.91;100.00;97075.09;5019330;28;20288;-75
2021/04/29 09:36:08;;;;;;;11.67;5.47;;;;;;;15.62;100.00;97081.84;5020254;28;20203;-75
2021/04/29 09:38:37;;;;;;;7.47;5.00;;;;;;;15.22;100.00;97078.72;5019803;28;20210;-75
2021/04/29 09:41:06;;;;;;;7.60;4.70;;;;;;;14.86;100.00;97082.06;5022676;28;20227;-75
2021/04/29 09:43:33;;;;;;;8.33;5.13;;;;;;;14.59;100.00;97077.69;5015284;28;20214;-74
2021/04/29 09:46:04;;;;;;;12.53;6.20;;;;;;;14.80;100.00;97079.56;5021214;28;20217;-74
2021/04/29 09:48:35;;;;;;;13.13;5.90;;;;;;;14.74;100.00;97080.56;5016081;28;20315;-73
2021/04/29 09:51:02;;;;;;;8.57;5.47;;;;;;;14.65;100.00;97071.31;5026372;28;20238;-74
2021/04/29 09:53:39;;;;;;;10.17;5.40;;;;;;;14.59;100.00;97077.69;5026750;28;20213;-74
2021/04/29 09:56:11;;;;;;;11.63;6.33;;;;;;;14.77;100.00;97075.50;5025893;28;20209;-73
2021/04/29 09:58:43;;;;;;;8.77;5.70;;;;;;;14.96;100.00;97065.25;5018537;28;20209;-74
2021/04/29 10:01:12;;;;;;;9.70;6.50;;;;;;;15.64;100.00;97057.38;5025842;28;20221;-83
2021/04/29 10:03:40;;;;;;;9.33;6.73;;;;;;;16.10;100.00;97044.03;5020767;28;20341;-76
2021/04/29 10:06:09;;;;;;;9.50;6.37;;;;;;;16.81;100.00;97031.81;5022370;28;20206;-76
2021/04/29 10:08:36;;;;;;;7.90;5.70;;;;;;;16.52;100.00;97044.06;5019877;28;20226;-75
2021/04/29 10:11:04;;;;;;;8.43;5.83;;;;;;;16.82;100.00;97026.13;5019142;28;20322;-76
2021/04/29 10:13:32;;;;;;;8.63;5.10;;;;;;;17.57;100.00;97039.00;5021852;28;20214;-76
2021/04/29 10:16:00;;;;;;;10.50;5.73;;;;;;;17.49;100.00;97037.69;5019749;28;20221;-75
2021/04/29 10:18:28;;;;;;;9.57;5.73;;;;;;;17.60;100.00;97039.31;5023771;28;20261;-77
2021/04/29 10:20:58;;;;;;;10.20;6.17;;;;;;;18.16;100.00;97034.69;5026220;28;20229;-80
2021/04/29 10:23:25;;;;;;;10.20;6.67;;;;;;;18.54;100.00;97031.44;5023139;28;20213;-74
2021/04/29 10:25:54;;;;;;;9.63;5.17;;;;;;;18.56;100.00;97021.13;5034525;28;20239;-73
2021/04/29 10:28:31;;;;;;;8.57;4.90;;;;;;;19.25;97.41;97025.44;5035735;28;20211;-76
2021/04/29 10:30:58;;;;;;;8.00;4.73;;;;;;;19.33;100.00;97021.34;5029673;28;20254;-73
2021/04/29 10:33:34;;;;;;;8.70;4.67;;;;;;;19.21;99.54;97023.56;5034005;28;20278;-76
2021/04/29 10:36:01;;;;;;;6.73;4.50;;;;;;;19.95;94.81;97024.13;5025708;28;20230;-82
2021/04/29 10:38:30;;;;;;;7.70;5.10;;;;;;;19.17;100.00;97020.63;5028161;28;20208;-75
2021/04/29 10:40:58;;;;;;;5.03;4.17;;;;;;;19.58;94.59;97022.00;5024724;28;20246;-77
2021/04/29 10:43:31;;;;;;;5.10;4.27;;;;;;;19.74;92.82;97028.94;5023340;28;20208;-80
2021/04/29 10:45:58;;;;;;;6.33;4.57;;;;;;;19.33;90.35;97026.75;5034199;28;20643;-82
2021/04/29 10:48:26;;;;;;;7.90;4.37;;;;;;;19.54;84.87;97039.06;5039641;28;20236;-74
2021/04/29 10:51:03;;;;;;;8.50;4.40;;;;;;;19.33;86.45;97024.88;5017822;28;20300;-76
2021/04/29 10:53:32;;;;;;;6.60;4.20;;;;;;;19.38;87.89;97030.25;5022758;28;20208;-71
2021/04/29 10:56:05;;;;;;;8.60;4.57;;;15.90;1.00;;;20.22;76.95;97044.25;5020537;28;20208;-72
2021/04/29 10:58:32;;;;;;;6.23;4.20;;;16.00;1.00;;;19.13;77.79;97049.31;5019034;28;20201;-72
2021/04/29 11:01:05;;;;;;;7.17;3.93;;;16.00;1.00;;;19.70;80.11;97044.09;5016030;28;20220;-72
2021/04/29 11:03:35;;;;;;;9.77;4.53;;;16.00;1.00;;;20.26;74.69;97056.13;5018908;28;20200;-71
2021/04/29 11:06:30;;;;;;;13.63;4.87;;;16.20;1.00;;;20.65;64.55;97061.44;5019882;28;20666;-74
2021/04/29 11:08:58;;;;;;;7.23;4.60;;;16.40;1.00;;;21.22;63.59;97069.47;5026668;28;20871;-74
2021/04/29 11:11:30;;;;;;;9.80;4.23;;;16.70;1.00;;;20.28;61.61;97082.94;5021842;28;20314;-73
2021/04/29 11:13:59;;;;;;;5.53;3.67;;;16.80;1.00;;;19.88;60.97;97094.06;5018294;28;20206;-73
2021/04/29 11:16:26;;;;;;;4.97;3.20;;;16.30;1.00;;;19.18;60.73;97100.66;5018644;28;20210;-72
2021/04/29 11:18:52;;;;;;;6.83;3.20;;;14.80;1.00;;;16.97;72.12;97077.41;5016903;28;20251;-72
2021/04/29 11:21:27;;;;;;;7.37;3.27;;;14.50;1.00;;;17.87;67.00;97090.31;5018624;28;20219;-72
2021/04/29 11:23:53;;;;;;;4.37;2.90;;;14.30;1.00;;;17.79;65.57;97091.66;5019482;28;20202;-73
2021/04/29 11:26:21;;;;;;;5.70;2.97;;;13.90;1.00;;;17.06;67.40;97081.22;5019731;28;20597;-70